KE6AFE Weather Reports


Display with metric or nautical units.
time (UTC)temp
F
wind
direction
speed
MPH
gust
MPH
rain 1hr
in
rain 24hr
in
rain mn
in
humidity
%
barometer
mb
20220523115311 49 65 0.0 0.0 0.00 0.00 0.00 74 1016.9
20220523114301 49 65 0.0 0.0 0.00 0.00 0.00 73 1016.8
20220523113251 49 65 0.0 0.0 0.00 0.00 0.00 73 1016.8
20220523112241 49 65 0.0 0.0 0.00 0.00 0.00 73 1016.9
20220523111231 50 65 0.0 0.0 0.00 0.00 0.00 72 1016.9
20220523110221 50 65 0.0 0.0 0.00 0.00 0.00 72 1016.8
20220523105211 50 65 0.0 0.0 0.00 0.00 0.00 72 1016.9
20220523104201 50 65 0.0 0.0 0.00 0.00 0.00 72 1017.0
20220523103151 50 65 0.0 0.0 0.00 0.00 0.00 72 1017.0
20220523102141 51 65 0.0 0.0 0.00 0.00 0.00 72 1017.0
20220523101131 51 65 0.0 0.0 0.00 0.00 0.00 72 1017.0
20220523100121 51 65 0.0 0.0 0.00 0.00 0.00 72 1017.1
20220523095111 51 65 0.0 0.0 0.00 0.00 0.00 72 1017.0
20220523094101 51 65 0.0 0.0 0.00 0.00 0.00 72 1017.1
20220523093051 51 65 0.0 0.0 0.00 0.00 0.00 72 1017.2
20220523092041 52 65 0.0 0.0 0.00 0.00 0.00 72 1017.2
20220523091031 52 65 0.0 0.0 0.00 0.00 0.00 72 1017.1
20220523090021 52 65 0.0 0.0 0.00 0.00 0.00 71 1017.1
20220523085011 52 127 0.0 0.0 0.00 0.00 0.00 71 1017.3
20220523084001 52 127 0.0 0.0 0.00 0.00 0.00 71 1017.4
20220523082951 53 127 0.0 0.0 0.00 0.00 0.00 70 1017.5
20220523081941 53 126 0.0 0.0 0.00 0.00 0.00 69 1017.4
20220523080931 53 127 0.0 0.0 0.00 0.00 0.00 69 1017.5
20220523075921 54 127 0.0 0.0 0.00 0.00 0.00 68 1017.5
20220523074911 54 127 0.0 0.0 0.00 0.00 0.00 68 1017.4
20220523073901 54 127 0.0 0.0 0.00 0.00 0.00 68 1017.5
20220523072851 54 127 0.0 0.0 0.00 0.00 0.00 68 1017.7
20220523071841 54 127 0.0 0.0 0.00 0.00 0.00 68 1017.6
20220523070831 55 127 0.0 0.0 0.00 0.00 0.00 68 1017.7
20220523065821 55 127 0.0 0.0 0.00 0.00 0.00 68 1017.8
20220523064811 55 127 0.0 0.0 0.00 0.00 0.00 67 1017.9
20220523063801 55 127 0.0 0.0 0.00 0.00 0.00 67 1017.9
20220523062751 56 127 0.0 0.0 0.00 0.00 0.00 67 1018.0
20220523061741 56 127 0.0 0.0 0.00 0.00 0.00 66 1018.1
20220523060731 56 127 0.0 0.0 0.00 0.00 0.00 66 1018.1
20220523055721 57 127 0.0 0.0 0.00 0.00 0.00 66 1018.3
20220523054711 57 127 0.0 0.0 0.00 0.00 0.00 65 1018.4
20220523053701 57 127 0.0 0.0 0.00 0.00 0.00 64 1018.4
20220523052651 58 127 0.0 0.0 0.00 0.00 0.00 64 1018.4
20220523051641 58 127 0.0 0.0 0.00 0.00 0.00 63 1018.5
20220523050631 58 127 0.0 0.0 0.00 0.00 0.00 63 1018.5
20220523045621 58 126 0.0 0.0 0.00 0.00 0.00 63 1018.3
20220523044611 59 127 0.0 0.0 0.00 0.00 0.00 62 1018.3
20220523043601 59 127 0.0 0.0 0.00 0.00 0.00 62 1018.3
20220523042551 59 127 0.0 0.0 0.00 0.00 0.00 62 1018.3
20220523041541 60 126 0.0 0.0 0.00 0.00 0.00 61 1018.2
20220523040531 60 126 0.0 0.0 0.00 0.00 0.00 61 1018.3
20220523035521 61 126 0.0 0.0 0.00 0.00 0.00 61 1018.2
20220523034511 61 126 0.0 0.0 0.00 0.00 0.00 60 1018.2
20220523033501 62 125 0.0 0.0 0.00 0.00 0.00 59 1018.3
20220523032451 62 126 0.0 0.0 0.00 0.00 0.00 57 1018.2
20220523031441 63 125 0.0 0.0 0.00 0.00 0.00 57 1018.1
20220523030431 63 125 0.0 0.0 0.00 0.00 0.00 56 1018.1
20220523025421 64 125 0.0 0.0 0.00 0.00 0.00 56 1018.0
20220523024411 64 120 0.0 0.0 0.00 0.00 0.00 55 1018.0
20220523023834 65 119 0.0 0.0 0.00 0.00 0.00 54 1018.1
20220523023401 65 119 0.0 0.0 0.00 0.00 0.00 54 1018.1
20220523022351 66 156 0.0 1.0 0.00 0.00 0.00 53 1018.0
20220523021341 66 119 2.0 6.0 0.00 0.00 0.00 52 1018.1
20220523020331 67 128 0.0 0.0 0.00 0.00 0.00 52 1018.2
20220523015321 68 143 1.0 6.0 0.00 0.00 0.00 50 1018.1
20220523014311 68 134 6.0 9.0 0.00 0.00 0.00 49 1018.0
20220523013301 69 98 0.0 0.0 0.00 0.00 0.00 48 1018.0
20220523012251 70 105 0.0 0.0 0.00 0.00 0.00 48 1018.0
20220523011241 70 105 1.0 2.0 0.00 0.00 0.00 47 1018.0
20220523010231 70 98 0.0 0.0 0.00 0.00 0.00 46 1017.9
20220523005221 71 98 0.0 0.0 0.00 0.00 0.00 45 1018.0
20220523004211 71 97 0.0 0.0 0.00 0.00 0.00 45 1018.1
20220523003201 71 96 0.0 0.0 0.00 0.00 0.00 44 1018.0
20220523002151 72 105 0.0 1.0 0.00 0.00 0.00 44 1017.9
20220523001141 72 124 0.0 1.0 0.00 0.00 0.00 44 1018.0
20220523000131 72 113 0.0 1.0 0.00 0.00 0.00 44 1018.0
20220522235121 72 137 0.0 3.0 0.00 0.00 0.00 45 1018.1
20220522234111 73 155 1.0 5.0 0.00 0.00 0.00 45 1018.1
20220522233101 73 158 3.0 8.0 0.00 0.00 0.00 44 1018.1
20220522232051 74 160 5.0 8.0 0.00 0.00 0.00 43 1018.3
20220522231040 74 150 5.0 6.0 0.00 0.00 0.00 42 1018.4
20220522230030 74 149 0.0 1.0 0.00 0.00 0.00 42 1018.5
20220522225021 74 149 1.0 5.0 0.00 0.00 0.00 41 1018.6
20220522224010 74 130 1.0 6.0 0.00 0.00 0.00 42 1018.7
20220522223000 75 122 1.0 3.0 0.00 0.00 0.00 43 1018.8
20220522221950 75 139 1.0 7.0 0.00 0.00 0.00 44 1018.8
20220522220940 74 154 2.0 5.0 0.00 0.00 0.00 44 1018.8
20220522215930 74 146 3.0 6.0 0.00 0.00 0.00 46 1018.8
20220522214921 73 139 1.0 6.0 0.00 0.00 0.00 46 1018.8
20220522213910 72 122 0.0 2.0 0.00 0.00 0.00 48 1018.8
20220522212900 72 96 1.0 3.0 0.00 0.00 0.00 47 1019.1
20220522211850 71 128 0.0 1.0 0.00 0.00 0.00 49 1019.0
20220522210841 70 125 0.0 1.0 0.00 0.00 0.00 49 1019.1
20220522205830 70 121 2.0 7.0 0.00 0.00 0.00 50 1019.2
20220522204821 69 118 2.0 3.0 0.00 0.00 0.00 52 1019.3
20220522203811 68 113 3.0 6.0 0.00 0.00 0.00 53 1019.3
20220522202800 67 113 0.0 1.0 0.00 0.00 0.00 54 1019.2
20220522201750 66 97 3.0 5.0 0.00 0.00 0.00 54 1019.2
20220522200740 65 98 0.0 3.0 0.00 0.00 0.00 56 1019.2
20220522195730 64 164 1.0 3.0 0.00 0.00 0.00 58 1019.3
20220522194720 63 133 3.0 7.0 0.00 0.00 0.00 59 1019.4
20220522193710 63 131 3.0 7.0 0.00 0.00 0.00 60 1019.5
20220522192700 62 123 2.0 3.0 0.00 0.00 0.00 61 1019.4
20220522191650 62 104 3.0 5.0 0.00 0.00 0.00 61 1019.6
20220522190640 62 166 1.0 8.0 0.00 0.00 0.00 62 1019.8
20220522185630 61 135 1.0 7.0 0.00 0.00 0.00 63 1019.7
20220522184620 61 175 2.0 6.0 0.00 0.00 0.00 63 1019.5
20220522183610 60 160 5.0 7.0 0.00 0.00 0.00 63 1019.6
20220522182600 60 138 0.0 1.0 0.00 0.00 0.00 65 1019.5
20220522181550 60 173 1.0 8.0 0.00 0.00 0.00 65 1019.4
20220522180540 59 117 0.0 0.0 0.00 0.00 0.00 66 1019.5
20220522175530 58 120 0.0 0.0 0.00 0.00 0.00 67 1019.4
20220522174520 58 165 0.0 0.0 0.00 0.00 0.00 68 1019.4
20220522173510 57 161 0.0 0.0 0.00 0.00 0.00 69 1019.4
20220522172500 57 162 0.0 0.0 0.00 0.00 0.00 69 1019.4
20220522171450 57 153 0.0 0.0 0.00 0.00 0.00 70 1019.4
20220522170440 56 82 0.0 0.0 0.00 0.00 0.00 71 1019.3
20220522165430 56 80 0.0 0.0 0.00 0.00 0.00 71 1019.3
20220522164420 55 78 0.0 0.0 0.00 0.00 0.00 72 1019.2
20220522163410 54 78 0.0 0.0 0.00 0.00 0.00 73 1019.4
20220522162400 54 69 0.0 0.0 0.00 0.00 0.00 73 1019.3
20220522161350 53 69 0.0 0.0 0.00 0.00 0.00 74 1019.5
20220522160340 53 78 0.0 0.0 0.00 0.00 0.00 75 1019.4
20220522155330 52 79 0.0 0.0 0.00 0.00 0.00 75 1019.4
20220522154320 52 79 0.0 0.0 0.00 0.00 0.00 76 1019.4
20220522153310 52 79 0.0 0.0 0.00 0.00 0.00 76 1019.5
20220522152300 52 79 0.0 0.0 0.00 0.00 0.00 77 1019.5
20220522151250 51 79 0.0 0.0 0.00 0.00 0.00 77 1019.4
20220522150240 51 79 0.0 0.0 0.00 0.00 0.00 77 1019.3
20220522145230 51 79 0.0 0.0 0.00 0.00 0.00 77 1019.5
20220522144220 51 79 0.0 0.0 0.00 0.00 0.00 78 1019.4
20220522143210 50 79 0.0 0.0 0.00 0.00 0.00 77 1019.3
20220522142200 50 79 0.0 0.0 0.00 0.00 0.00 77 1019.2
20220522141150 50 79 0.0 0.0 0.00 0.00 0.00 77 1019.1
20220522140140 50 79 0.0 0.0 0.00 0.00 0.00 76 1018.9
20220522135130 50 79 0.0 0.0 0.00 0.00 0.00 76 1018.7
20220522134120 49 79 0.0 0.0 0.00 0.00 0.00 76 1018.7
20220522133110 49 79 0.0 0.0 0.00 0.00 0.00 76 1018.6
20220522132100 49 79 0.0 0.0 0.00 0.00 0.00 76 1018.5
20220522131050 49 79 0.0 0.0 0.00 0.00 0.00 75 1018.5
20220522130040 49 79 0.0 0.0 0.00 0.00 0.00 74 1018.4
20220522125030 48 79 0.0 0.0 0.00 0.00 0.00 75 1018.2
20220522124020 48 79 0.0 0.0 0.00 0.00 0.00 75 1018.1
20220522123010 48 79 0.0 0.0 0.00 0.00 0.00 74 1018.1
20220522122000 48 79 0.0 0.0 0.00 0.00 0.00 74 1018.1
20220522120950 48 79 0.0 0.0 0.00 0.00 0.00 74 1018.2
20220522120033 47 79 0.0 0.0 0.00 0.00 0.00 73 1018.2